createdAt,value
2018-09-18T00:01:58.076Z,101150.29
2018-09-18T00:04:27.019Z,101152.64
2018-09-18T00:06:55.951Z,101148.92
2018-09-18T00:09:24.875Z,101145.30
2018-09-18T00:11:54.155Z,101147.64
2018-09-18T00:14:23.436Z,101142.86
2018-09-18T00:16:52.461Z,101139.03
2018-09-18T00:19:21.394Z,101136.30
2018-09-18T00:21:50.283Z,101136.53
2018-09-18T00:24:19.243Z,101136.23
2018-09-18T00:26:48.171Z,101129.07
2018-09-18T00:29:17.433Z,101132.16
2018-09-18T00:31:47.485Z,101129.44
2018-09-18T00:34:16.426Z,101133.09
2018-09-18T00:36:45.321Z,101129.98
2018-09-18T00:39:14.296Z,101121.31
2018-09-18T00:41:43.224Z,101129.41
2018-09-18T00:44:12.104Z,101129.28
2018-09-18T00:46:41.013Z,101127.23
2018-09-18T00:49:09.960Z,101122.02
2018-09-18T00:51:38.918Z,101119.22
2018-09-18T00:54:08.007Z,101118.55
2018-09-18T00:56:36.965Z,101116.17
2018-09-18T00:59:06.051Z,101120.96
2018-09-18T01:01:35.073Z,101117.42
2018-09-18T01:04:04.106Z,101109.78
2018-09-18T01:06:33.078Z,101114.43
2018-09-18T01:09:02.046Z,101113.16
2018-09-18T01:11:31.092Z,101104.94
2018-09-18T01:14:00.142Z,101101.45
2018-09-18T01:16:29.151Z,101102.48
2018-09-18T01:18:58.058Z,101098.36
2018-09-18T01:21:27.000Z,101096.83
2018-09-18T01:23:55.869Z,101092.20
2018-09-18T01:26:24.930Z,101091.63
2018-09-18T01:28:54.042Z,101094.83
2018-09-18T01:31:23.063Z,101094.03
2018-09-18T01:33:52.317Z,101090.45
2018-09-18T01:36:21.213Z,101091.83
2018-09-18T01:38:50.109Z,101094.28
2018-09-18T01:41:19.055Z,101089.91
2018-09-18T01:43:48.041Z,101089.87
2018-09-18T01:46:16.907Z,101091.51
2018-09-18T01:48:45.961Z,101090.98
2018-09-18T01:51:14.886Z,101087.50
2018-09-18T01:53:43.949Z,101087.34
2018-09-18T01:56:12.915Z,101080.31
2018-09-18T01:58:41.934Z,101082.72
2018-09-18T02:01:11.192Z,101080.83
2018-09-18T02:03:40.251Z,101081.48
2018-09-18T02:06:09.275Z,101077.11
2018-09-18T02:08:38.170Z,101074.95
2018-09-18T02:11:07.186Z,101076.20
2018-09-18T02:13:36.460Z,101073.92
2018-09-18T02:16:05.992Z,101071.75
2018-09-18T02:18:34.896Z,101068.80
2018-09-18T02:21:04.647Z,101067.34
2018-09-18T02:23:33.913Z,101066.56
2018-09-18T02:26:02.790Z,101060.95
2018-09-18T02:28:31.895Z,101065.91
2018-09-18T02:31:01.147Z,101062.94
2018-09-18T02:33:30.068Z,101057.81
2018-09-18T02:35:58.971Z,101049.47
2018-09-18T02:38:27.881Z,101062.52
2018-09-18T02:40:56.809Z,101058.73
2018-09-18T02:43:25.714Z,101062.32
2018-09-18T02:45:54.648Z,101055.34
2018-09-18T02:48:23.500Z,101056.38
2018-09-18T02:50:52.401Z,101053.38
2018-09-18T02:53:21.362Z,101049.88
2018-09-18T02:55:50.309Z,101049.28
2018-09-18T02:58:19.203Z,101050.49
2018-09-18T03:00:48.082Z,101045.84
2018-09-18T03:03:17.021Z,101040.97
2018-09-18T03:05:45.999Z,101038.05
2018-09-18T03:08:15.239Z,101035.12
2018-09-18T03:10:44.096Z,101039.01
2018-09-18T03:13:13.009Z,101038.64
2018-09-18T03:15:41.937Z,101035.05
2018-09-18T03:18:10.967Z,101032.36
2018-09-18T03:20:39.913Z,101039.45
2018-09-18T03:23:09.378Z,101031.71
2018-09-18T03:25:38.272Z,101030.33
2018-09-18T03:28:07.162Z,101030.06
2018-09-18T03:30:36.258Z,101027.80
2018-09-18T03:33:05.185Z,101026.64
2018-09-18T03:35:34.225Z,101030.02
2018-09-18T03:38:03.234Z,101030.80
2018-09-18T03:40:32.142Z,101028.40
2018-09-18T03:43:01.116Z,101026.33
2018-09-18T03:45:30.069Z,101020.63
2018-09-18T03:47:59.264Z,101022.72
2018-09-18T03:50:28.463Z,101018.67
2018-09-18T03:52:57.391Z,101020.56
2018-09-18T03:55:26.309Z,101019.31
2018-09-18T03:57:55.319Z,101018.89
2018-09-18T04:00:24.389Z,101015.20
2018-09-18T04:02:53.412Z,101015.84
2018-09-18T04:05:22.302Z,101008.75
2018-09-18T04:07:51.228Z,101011.38
2018-09-18T04:10:20.135Z,100998.84
2018-09-18T04:12:49.109Z,101004.23
2018-09-18T04:15:18.060Z,101000.08
2018-09-18T04:17:46.958Z,101002.37
2018-09-18T04:20:15.890Z,100999.86
2018-09-18T04:22:44.784Z,100993.95
2018-09-18T04:25:13.665Z,100999.26
2018-09-18T04:27:42.581Z,100996.05
2018-09-18T04:30:11.715Z,100992.50
2018-09-18T04:32:40.731Z,100997.28
2018-09-18T04:35:09.627Z,100984.80
2018-09-18T04:37:38.644Z,100990.51
2018-09-18T04:40:08.329Z,100988.98
2018-09-18T04:42:37.266Z,100987.23
2018-09-18T04:45:06.222Z,100985.92
2018-09-18T04:47:35.258Z,100985.87
2018-09-18T04:50:04.407Z,100986.41
2018-09-18T04:52:33.490Z,100985.64
2018-09-18T04:55:02.513Z,100981.20
2018-09-18T04:57:31.997Z,100980.59
2018-09-18T05:00:00.892Z,100977.16
2018-09-18T05:02:29.781Z,100979.42
2018-09-18T05:04:58.752Z,100978.50
2018-09-18T05:07:27.663Z,100984.56
2018-09-18T05:09:56.591Z,100988.64
2018-09-18T05:12:25.751Z,100991.34
2018-09-18T05:14:54.682Z,100988.11
2018-09-18T05:17:23.575Z,100983.93
2018-09-18T05:19:52.496Z,100986.45
2018-09-18T05:22:21.569Z,100986.36
2018-09-18T05:24:50.480Z,100991.70
2018-09-18T05:27:19.387Z,100987.34
2018-09-18T05:29:48.370Z,100986.00
2018-09-18T05:32:17.399Z,100987.88
2018-09-18T05:34:46.604Z,100993.90
2018-09-18T05:37:15.508Z,100991.83
2018-09-18T05:39:44.435Z,100991.50
2018-09-18T05:42:13.439Z,100997.16
2018-09-18T05:44:42.382Z,100991.88
2018-09-18T05:47:11.696Z,100992.66
2018-09-18T05:49:40.570Z,100993.15
2018-09-18T05:52:09.493Z,100993.37
2018-09-18T05:54:38.671Z,100993.99
2018-09-18T05:57:07.653Z,100987.57
2018-09-18T05:59:36.537Z,100989.20
2018-09-18T06:02:05.816Z,100985.66
2018-09-18T06:04:34.682Z,100989.34
2018-09-18T06:07:03.569Z,100984.28
2018-09-18T06:09:32.575Z,100980.00
2018-09-18T06:12:01.439Z,100980.27
2018-09-18T06:14:30.315Z,100983.47
2018-09-18T06:16:59.224Z,100982.78
2018-09-18T06:19:28.102Z,100979.15
2018-09-18T06:21:56.957Z,100974.59
2018-09-18T06:24:25.879Z,100974.44
2018-09-18T06:26:54.823Z,100977.14
2018-09-18T06:29:23.741Z,100974.19
2018-09-18T06:31:52.640Z,100976.81
2018-09-18T06:34:21.532Z,100974.00
2018-09-18T06:36:50.455Z,100975.92
2018-09-18T06:39:19.398Z,100974.37
2018-09-18T06:41:48.293Z,100979.19
2018-09-18T06:44:17.228Z,100979.80
2018-09-18T06:46:46.163Z,100971.38
2018-09-18T06:49:15.152Z,100969.52
2018-09-18T06:51:44.115Z,100970.05
2018-09-18T06:54:13.085Z,100970.61
2018-09-18T06:56:42.338Z,100975.53
2018-09-18T06:59:11.433Z,100973.96
2018-09-18T07:01:40.385Z,100969.89
2018-09-18T07:04:09.300Z,100969.14
2018-09-18T07:06:38.334Z,100965.63
2018-09-18T07:09:08.036Z,100976.21
2018-09-18T07:11:36.992Z,100974.03
2018-09-18T07:14:05.962Z,100964.32
2018-09-18T07:16:34.998Z,100965.17
2018-09-18T07:19:04.025Z,100961.69
2018-09-18T07:21:32.920Z,100956.24
2018-09-18T07:24:01.817Z,100959.51
2018-09-18T07:26:30.753Z,100960.91
2018-09-18T07:28:59.780Z,100960.95
2018-09-18T07:31:28.690Z,100957.19
2018-09-18T07:33:57.772Z,100965.05
2018-09-18T07:36:26.629Z,100956.09
2018-09-18T07:38:55.520Z,100958.33
2018-09-18T07:41:24.846Z,100961.30
2018-09-18T07:43:53.873Z,100959.19
2018-09-18T07:46:22.890Z,100965.13
2018-09-18T07:48:51.812Z,100952.94
2018-09-18T07:51:20.681Z,100952.17
2018-09-18T07:53:49.590Z,100952.46
2018-09-18T07:56:18.610Z,100949.20
2018-09-18T07:58:47.616Z,100947.85
2018-09-18T08:01:16.845Z,100940.28
2018-09-18T08:03:45.823Z,100939.42
2018-09-18T08:06:14.689Z,100940.23
2018-09-18T08:08:43.598Z,100938.58
2018-09-18T08:11:12.549Z,100933.14
2018-09-18T08:13:41.417Z,100930.72
2018-09-18T08:16:10.320Z,100927.14
2018-09-18T08:18:39.300Z,100931.18
2018-09-18T08:21:08.194Z,100929.83
2018-09-18T08:23:37.072Z,100927.31
2018-09-18T08:26:06.044Z,100927.80
2018-09-18T08:28:34.911Z,100919.62
2018-09-18T08:31:03.810Z,100913.95
2018-09-18T08:33:32.916Z,100919.16
2018-09-18T08:36:01.854Z,100915.54
2018-09-18T08:38:30.782Z,100915.81
2018-09-18T08:40:59.742Z,100918.74
2018-09-18T08:43:28.637Z,100917.95
2018-09-18T08:45:57.549Z,100922.56
2018-09-18T08:48:28.947Z,100912.54
2018-09-18T08:50:58.239Z,100916.47
2018-09-18T08:53:27.298Z,100915.98
2018-09-18T08:55:56.316Z,100920.55
2018-09-18T08:58:25.622Z,100919.37
2018-09-18T09:00:54.573Z,100920.34
2018-09-18T09:03:23.516Z,100911.31
2018-09-18T09:05:52.467Z,100917.92
2018-09-18T09:08:21.455Z,100909.44
2018-09-18T09:10:50.374Z,100910.51
2018-09-18T09:13:19.253Z,100906.11
2018-09-18T09:15:48.133Z,100901.35
2018-09-18T09:18:17.116Z,100901.37
2018-09-18T09:20:45.991Z,100899.14
2018-09-18T09:23:14.817Z,100893.52
2018-09-18T09:25:43.721Z,100889.95
2018-09-18T09:28:12.627Z,100886.18
2018-09-18T09:30:41.578Z,100883.83
2018-09-18T09:33:10.588Z,100879.02
2018-09-18T09:35:39.436Z,100879.61
2018-09-18T09:38:08.377Z,100877.35
2018-09-18T09:40:37.254Z,100880.07
2018-09-18T09:43:06.484Z,100869.75
2018-09-18T09:45:35.367Z,100865.66
2018-09-18T09:48:04.257Z,100865.66
2018-09-18T09:50:33.140Z,100862.88
2018-09-18T09:53:02.162Z,100861.66
2018-09-18T09:55:31.037Z,100853.14
2018-09-18T09:58:00.339Z,100852.00
2018-09-18T10:00:34.489Z,100855.75
2018-09-18T10:03:03.475Z,100844.05
2018-09-18T10:05:32.442Z,100841.83
2018-09-18T10:08:01.334Z,100833.06
2018-09-18T10:10:30.361Z,100824.15
2018-09-18T10:12:59.237Z,100825.32
2018-09-18T10:15:28.117Z,100819.93
2018-09-18T10:17:57.254Z,100820.83
2018-09-18T10:20:25.982Z,100808.86
2018-09-18T10:22:54.935Z,100807.41
2018-09-18T10:25:23.844Z,100813.06
2018-09-18T10:27:53.489Z,100803.84
2018-09-18T10:30:22.520Z,100806.89
2018-09-18T10:32:51.546Z,100808.89
2018-09-18T10:35:20.456Z,100805.91
2018-09-18T10:37:49.417Z,100805.45
2018-09-18T10:40:18.367Z,100803.45
2018-09-18T10:42:47.350Z,100801.49
2018-09-18T10:45:16.203Z,100798.89
2018-09-18T10:47:45.294Z,100797.96
2018-09-18T10:50:14.202Z,100791.86
2018-09-18T10:52:43.147Z,100779.25
2018-09-18T10:55:12.031Z,100779.40
2018-09-18T10:57:41.017Z,100775.80
2018-09-18T11:00:10.092Z,100775.87
2018-09-18T11:02:39.007Z,100774.91
2018-09-18T11:05:07.921Z,100769.48
2018-09-18T11:07:36.895Z,100755.15
2018-09-18T11:10:05.966Z,100754.82
2018-09-18T11:12:35.127Z,100761.41
2018-09-18T11:15:04.305Z,100755.65
2018-09-18T11:17:33.214Z,100751.53
2018-09-18T11:20:02.262Z,100746.16
2018-09-18T11:22:31.209Z,100735.65
2018-09-18T11:25:00.318Z,100739.45
2018-09-18T11:27:29.231Z,100730.80
2018-09-18T11:29:58.106Z,100724.52
2018-09-18T11:32:27.050Z,100724.89
2018-09-18T11:34:55.946Z,100731.92
2018-09-18T11:37:24.834Z,100722.13
2018-09-18T11:39:53.809Z,100718.44
2018-09-18T11:42:22.786Z,100710.22
2018-09-18T11:44:51.663Z,100709.06
2018-09-18T11:47:20.783Z,100707.77
2018-09-18T11:49:49.692Z,100709.06
2018-09-18T11:52:18.623Z,100715.31
2018-09-18T11:54:47.538Z,100705.91
2018-09-18T11:57:16.605Z,100704.20
2018-09-18T11:59:45.376Z,100701.02
2018-09-18T12:02:14.285Z,100704.87
2018-09-18T12:04:43.356Z,100701.06
2018-09-18T12:07:12.282Z,100703.72
2018-09-18T12:09:41.466Z,100700.41
2018-09-18T12:12:10.491Z,100706.88
2018-09-18T12:14:39.387Z,100682.73
2018-09-18T12:17:08.473Z,100689.34
2018-09-18T12:19:37.303Z,100689.13
2018-09-18T12:22:06.252Z,100688.86
2018-09-18T12:24:35.162Z,100679.51
2018-09-18T12:27:04.070Z,100678.53
2018-09-18T12:29:33.097Z,100669.20
2018-09-18T12:32:02.751Z,100674.70
2018-09-18T12:34:31.717Z,100667.37
2018-09-18T12:37:00.594Z,100666.08
2018-09-18T12:39:29.517Z,100667.02
2018-09-18T12:41:58.573Z,100663.94
2018-09-18T12:44:27.348Z,100658.48
2018-09-18T12:46:56.231Z,100660.77
2018-09-18T12:49:25.280Z,100656.11
2018-09-18T12:51:54.117Z,100652.54
2018-09-18T12:54:23.168Z,100646.02
2018-09-18T12:56:52.230Z,100652.39
2018-09-18T12:59:21.169Z,100644.01
2018-09-18T13:01:50.064Z,100646.56
2018-09-18T13:04:19.004Z,100641.44
2018-09-18T13:06:48.092Z,100637.81
2018-09-18T13:09:16.977Z,100635.95
2018-09-18T13:11:45.895Z,100625.42
2018-09-18T13:14:14.860Z,100623.28
2018-09-18T13:16:43.775Z,100635.80
2018-09-18T13:19:12.838Z,100630.13
2018-09-18T13:21:41.746Z,100635.82
2018-09-18T13:24:10.664Z,100642.81
2018-09-18T13:26:39.580Z,100633.13
2018-09-18T13:29:08.620Z,100634.29
2018-09-18T13:31:37.527Z,100626.53
2018-09-18T13:34:06.812Z,100623.02
2018-09-18T13:36:35.844Z,100620.56
2018-09-18T13:39:06.220Z,100620.20
2018-09-18T13:41:35.173Z,100614.68
2018-09-18T13:44:04.182Z,100618.15
2018-09-18T13:46:33.831Z,100613.30
2018-09-18T13:49:02.731Z,100615.77
2018-09-18T13:51:31.656Z,100608.27
2018-09-18T13:54:00.533Z,100608.77
2018-09-18T13:56:29.610Z,100601.70
2018-09-18T13:58:58.398Z,100593.39
2018-09-18T14:01:27.371Z,100595.75
2018-09-18T14:03:56.185Z,100593.16
2018-09-18T14:06:25.114Z,100591.66
2018-09-18T14:08:54.060Z,100595.64
2018-09-18T14:11:22.983Z,100588.92
2018-09-18T14:13:51.853Z,100586.88
2018-09-18T14:16:20.827Z,100590.03
2018-09-18T14:18:49.778Z,100592.48
2018-09-18T14:21:18.654Z,100599.87
2018-09-18T14:23:47.560Z,100597.15
2018-09-18T14:26:16.603Z,100589.00
2018-09-18T14:28:45.408Z,100596.99
2018-09-18T14:31:14.354Z,100594.31
2018-09-18T14:33:43.288Z,100584.42
2018-09-18T14:36:12.213Z,100592.23
2018-09-18T14:38:41.135Z,100580.81
2018-09-18T14:41:10.077Z,100575.72
2018-09-18T14:43:39.068Z,100576.54
2018-09-18T14:46:08.095Z,100575.30
2018-09-18T14:48:36.974Z,100571.98
2018-09-18T14:51:05.984Z,100576.81
2018-09-18T14:53:35.145Z,100579.53
2018-09-18T14:56:04.027Z,100573.70
2018-09-18T14:58:32.912Z,100571.36
2018-09-18T15:01:01.889Z,100580.86
2018-09-18T15:03:30.817Z,100572.27
2018-09-18T15:05:59.811Z,100559.42
2018-09-18T15:08:28.747Z,100572.53
2018-09-18T15:10:57.672Z,100569.98
2018-09-18T15:13:27.041Z,100571.28
2018-09-18T15:15:55.951Z,100567.25
2018-09-18T15:18:24.874Z,100575.18
2018-09-18T15:20:53.930Z,100568.14
2018-09-18T15:23:22.839Z,100559.10
2018-09-18T15:25:51.731Z,100570.33
2018-09-18T15:28:20.674Z,100561.69
2018-09-18T15:30:49.714Z,100565.11
2018-09-18T15:33:18.664Z,100568.23
2018-09-18T15:35:47.569Z,100567.42
2018-09-18T15:38:16.624Z,100561.63
2018-09-18T15:40:45.522Z,100560.52
2018-09-18T15:43:14.462Z,100562.58
2018-09-18T15:45:43.415Z,100561.77
2018-09-18T15:48:13.357Z,100554.92
2018-09-18T15:50:47.882Z,100560.52
2018-09-18T15:53:19.375Z,100559.81
2018-09-18T15:55:48.265Z,100557.88
2018-09-18T15:58:17.155Z,100565.02
2018-09-18T16:04:11.278Z,100556.25
2018-09-18T16:06:40.824Z,100556.44
2018-09-18T16:09:13.848Z,100558.66
2018-09-18T16:11:43.373Z,100558.87
2018-09-18T16:14:12.337Z,100550.37
2018-09-18T16:16:46.356Z,100558.58
2018-09-18T16:19:17.466Z,100558.65
2018-09-18T16:24:46.099Z,100547.94
2018-09-18T16:27:15.861Z,100551.05
2018-09-18T16:29:44.721Z,100554.77
2018-09-18T16:32:13.629Z,100557.93
2018-09-18T16:34:42.534Z,100551.24
2018-09-18T16:37:14.021Z,100556.11
2018-09-18T16:39:42.951Z,100553.88
2018-09-18T16:42:11.850Z,100548.05
2018-09-18T16:47:34.135Z,100547.27
2018-09-18T16:50:12.871Z,100551.67
2018-09-18T16:52:41.803Z,100553.09
2018-09-18T16:55:10.789Z,100550.63
2018-09-18T16:57:40.663Z,100552.96
2018-09-18T17:00:09.797Z,100562.87
2018-09-18T17:02:38.720Z,100565.34
2018-09-18T17:05:07.597Z,100566.59
2018-09-18T17:07:36.521Z,100570.05
2018-09-18T17:10:05.395Z,100569.82
2018-09-18T17:12:34.359Z,100576.30
2018-09-18T17:15:03.689Z,100579.52
2018-09-18T17:17:32.637Z,100583.44
2018-09-18T17:20:01.544Z,100581.50
2018-09-18T17:22:34.645Z,100585.63
2018-09-18T17:25:04.391Z,100591.38
2018-09-18T17:27:36.920Z,100588.73
2018-09-18T17:30:05.984Z,100597.23
2018-09-18T17:32:34.873Z,100596.09
2018-09-18T17:35:04.081Z,100606.67
2018-09-18T17:37:32.956Z,100607.31
2018-09-18T17:40:01.916Z,100606.52
2018-09-18T17:42:30.862Z,100616.04
2018-09-18T17:44:59.793Z,100623.16
2018-09-18T17:47:28.751Z,100623.83
2018-09-18T17:49:57.629Z,100631.42
2018-09-18T17:52:26.596Z,100634.63
2018-09-18T17:54:55.495Z,100632.09
2018-09-18T17:57:24.476Z,100638.42
2018-09-18T17:59:53.401Z,100646.34
2018-09-18T18:02:22.365Z,100641.62
2018-09-18T18:04:51.471Z,100645.63
2018-09-18T18:07:20.351Z,100647.80
2018-09-18T18:09:49.339Z,100651.80
2018-09-18T18:12:18.336Z,100650.34
2018-09-18T18:14:47.239Z,100659.84
2018-09-18T18:17:16.173Z,100664.86
2018-09-18T18:19:45.133Z,100663.34
2018-09-18T18:22:14.073Z,100665.27
2018-09-18T18:24:43.157Z,100664.92
2018-09-18T18:27:12.062Z,100669.45
2018-09-18T18:29:40.993Z,100673.69
2018-09-18T18:32:09.947Z,100673.50
2018-09-18T18:34:38.879Z,100673.02
2018-09-18T18:37:08.102Z,100682.80
2018-09-18T18:39:37.002Z,100686.31
2018-09-18T18:42:05.922Z,100688.73
2018-09-18T18:44:34.819Z,100687.27
2018-09-18T18:47:03.720Z,100689.88
2018-09-18T18:49:38.019Z,100689.55
2018-09-18T18:52:07.436Z,100698.50
2018-09-18T18:54:36.575Z,100702.45
2018-09-18T18:57:05.841Z,100709.22
2018-09-18T18:59:34.784Z,100713.80
2018-09-18T19:02:03.721Z,100736.13
2018-09-18T19:04:32.654Z,100745.16
2018-09-18T19:07:01.640Z,100753.03
2018-09-18T19:09:30.473Z,100766.67
2018-09-18T19:11:59.364Z,100773.92
2018-09-18T19:14:28.266Z,100780.20
2018-09-18T19:16:57.195Z,100779.50
2018-09-18T19:19:26.129Z,100799.59
2018-09-18T19:21:55.061Z,100797.50
2018-09-18T19:24:24.007Z,100803.75
2018-09-18T19:26:52.900Z,100811.29
2018-09-18T19:29:21.798Z,100816.93
2018-09-18T19:31:50.745Z,100832.67
2018-09-18T19:34:19.629Z,100824.88
2018-09-18T19:36:48.541Z,100838.84
2018-09-18T19:39:17.622Z,100840.68
2018-09-18T19:41:46.346Z,100844.45
2018-09-18T19:44:15.265Z,100851.48
2018-09-18T19:46:44.171Z,100855.84
2018-09-18T19:49:13.122Z,100849.09
2018-09-18T19:51:42.072Z,100861.34
2018-09-18T19:54:10.971Z,100861.81
2018-09-18T19:56:40.012Z,100865.59
2018-09-18T19:59:09.763Z,100870.70
2018-09-18T20:01:38.726Z,100881.27
2018-09-18T20:04:07.645Z,100890.23
2018-09-18T20:06:36.577Z,100898.08
2018-09-18T20:09:08.414Z,100895.28
2018-09-18T20:11:37.272Z,100909.73
2018-09-18T20:14:06.201Z,100911.61
2018-09-18T20:16:35.090Z,100921.82
2018-09-18T20:19:04.000Z,100926.78
2018-09-18T20:21:32.938Z,100925.11
2018-09-18T20:24:01.825Z,100923.50
2018-09-18T20:26:30.868Z,100920.72
2018-09-18T20:28:59.876Z,100930.59
2018-09-18T20:31:28.732Z,100929.19
2018-09-18T20:33:57.685Z,100929.31
2018-09-18T20:36:26.694Z,100937.98
2018-09-18T20:38:55.533Z,100947.74
2018-09-18T20:41:24.429Z,100946.27
2018-09-18T20:43:53.374Z,100954.45
2018-09-18T20:46:22.308Z,100953.14
2018-09-18T20:48:51.437Z,100947.05
2018-09-18T20:51:20.381Z,100952.02
2018-09-18T20:53:49.287Z,100947.78
2018-09-18T20:56:18.213Z,100950.14
2018-09-18T20:58:47.174Z,100943.25
2018-09-18T21:01:16.196Z,100947.78
2018-09-18T21:03:45.132Z,100954.57
2018-09-18T21:06:14.041Z,100958.76
2018-09-18T21:08:43.146Z,100962.47
2018-09-18T21:11:12.041Z,100972.20
2018-09-18T21:13:40.942Z,100986.45
2018-09-18T21:16:09.866Z,100979.17
2018-09-18T21:18:38.793Z,100982.46
2018-09-18T21:21:07.706Z,100985.80
2018-09-18T21:23:36.613Z,100989.67
2018-09-18T21:26:10.762Z,100994.44
2018-09-18T21:28:39.709Z,100995.33
2018-09-18T21:31:08.802Z,100990.97
2018-09-18T21:33:38.002Z,100997.74
2018-09-18T21:36:06.953Z,100997.42
2018-09-18T21:38:35.906Z,100990.80
2018-09-18T21:41:04.809Z,100988.14
2018-09-18T21:43:33.795Z,100996.63
2018-09-18T21:46:02.720Z,101000.28
2018-09-18T21:48:31.667Z,101003.65
2018-09-18T21:51:00.564Z,101006.63
2018-09-18T21:53:29.573Z,101004.14
2018-09-18T21:55:58.474Z,101010.03
2018-09-18T22:00:55.270Z,101005.38
2018-09-18T22:03:24.192Z,101004.75
2018-09-18T22:05:53.221Z,101005.31
2018-09-18T22:08:22.288Z,101009.83
2018-09-18T22:10:51.244Z,101014.92
2018-09-18T22:13:20.296Z,101021.44
2018-09-18T22:15:49.212Z,101023.12
2018-09-18T22:18:18.180Z,101031.22
2018-09-18T22:20:47.093Z,101030.34
2018-09-18T22:23:16.047Z,101020.56
2018-09-18T22:25:45.110Z,101042.58
2018-09-18T22:28:14.012Z,101035.69
2018-09-18T22:30:42.922Z,101040.17
2018-09-18T22:33:11.821Z,101042.77
2018-09-18T22:35:40.713Z,101043.20
2018-09-18T22:38:09.764Z,101045.33
2018-09-18T22:40:38.698Z,101045.12
2018-09-18T22:43:07.659Z,101043.80
2018-09-18T22:45:36.608Z,101044.64
2018-09-18T22:48:05.834Z,101056.93
2018-09-18T22:50:34.768Z,101058.62
2018-09-18T22:53:03.679Z,101060.56
2018-09-18T22:55:32.643Z,101076.25
2018-09-18T22:58:01.581Z,101073.30
2018-09-18T23:00:30.531Z,101070.23
2018-09-18T23:02:59.442Z,101073.05
2018-09-18T23:05:28.354Z,101073.95
2018-09-18T23:07:57.253Z,101071.44
2018-09-18T23:10:26.171Z,101076.61
2018-09-18T23:12:55.079Z,101075.93
2018-09-18T23:15:24.000Z,101078.38
2018-09-18T23:17:52.879Z,101076.91
2018-09-18T23:20:21.747Z,101084.25
2018-09-18T23:22:50.683Z,101078.48
2018-09-18T23:25:19.623Z,101077.91
2018-09-18T23:27:48.546Z,101075.36
2018-09-18T23:30:17.429Z,101080.20
2018-09-18T23:32:46.329Z,101080.59
2018-09-18T23:35:15.275Z,101079.72
2018-09-18T23:37:44.137Z,101075.66
2018-09-18T23:40:13.002Z,101073.79
2018-09-18T23:42:41.924Z,101070.78
2018-09-18T23:45:10.955Z,101083.91
2018-09-18T23:47:39.845Z,101085.83
2018-09-18T23:50:08.743Z,101080.03
2018-09-18T23:52:38.135Z,101081.18
2018-09-18T23:55:07.057Z,101081.40
2018-09-18T23:57:36.121Z,101083.70
